sensor_id;sensor_type;location;lat;lon;timestamp;P1;durP1;ratioP1;P2;durP2;ratioP2
71570;SDS011;59407;42.682;23.322;2022-08-21T00:00:15;44.80;;;14.90;;
71570;SDS011;59407;42.682;23.322;2022-08-21T00:03:15;36.08;;;14.07;;
71570;SDS011;59407;42.682;23.322;2022-08-21T00:05:39;35.00;;;14.98;;
71570;SDS011;59407;42.682;23.322;2022-08-21T00:08:07;43.15;;;15.05;;
71570;SDS011;59407;42.682;23.322;2022-08-21T00:10:33;39.50;;;15.88;;
71570;SDS011;59407;42.682;23.322;2022-08-21T00:13:03;31.00;;;12.53;;
71570;SDS011;59407;42.682;23.322;2022-08-21T00:15:30;30.90;;;13.35;;
71570;SDS011;59407;42.682;23.322;2022-08-21T00:17:57;35.03;;;15.15;;
71570;SDS011;59407;42.682;23.322;2022-08-21T00:20:22;39.07;;;15.77;;
71570;SDS011;59407;42.682;23.322;2022-08-21T00:22:48;36.83;;;14.57;;
71570;SDS011;59407;42.682;23.322;2022-08-21T00:25:14;45.03;;;17.15;;
71570;SDS011;59407;42.682;23.322;2022-08-21T00:27:41;45.00;;;18.15;;
71570;SDS011;59407;42.682;23.322;2022-08-21T00:30:08;39.95;;;15.02;;
71570;SDS011;59407;42.682;23.322;2022-08-21T00:32:35;38.77;;;14.80;;
71570;SDS011;59407;42.682;23.322;2022-08-21T00:35:01;34.38;;;14.13;;
71570;SDS011;59407;42.682;23.322;2022-08-21T00:37:28;39.63;;;14.98;;
71570;SDS011;59407;42.682;23.322;2022-08-21T00:39:53;32.43;;;13.23;;
71570;SDS011;59407;42.682;23.322;2022-08-21T00:42:19;33.63;;;13.23;;
71570;SDS011;59407;42.682;23.322;2022-08-21T00:44:46;31.17;;;13.40;;
71570;SDS011;59407;42.682;23.322;2022-08-21T00:47:13;33.03;;;13.00;;
71570;SDS011;59407;42.682;23.322;2022-08-21T00:49:39;36.13;;;13.50;;
71570;SDS011;59407;42.682;23.322;2022-08-21T00:52:05;32.60;;;14.00;;
71570;SDS011;59407;42.682;23.322;2022-08-21T00:54:35;31.50;;;12.10;;
71570;SDS011;59407;42.682;23.322;2022-08-21T00:57:07;36.05;;;15.38;;
71570;SDS011;59407;42.682;23.322;2022-08-21T00:59:36;30.50;;;12.23;;
71570;SDS011;59407;42.682;23.322;2022-08-21T01:02:03;32.67;;;12.32;;
71570;SDS011;59407;42.682;23.322;2022-08-21T01:04:32;35.70;;;12.27;;
71570;SDS011;59407;42.682;23.322;2022-08-21T01:06:58;36.22;;;13.52;;
71570;SDS011;59407;42.682;23.322;2022-08-21T01:09:23;36.27;;;12.73;;
71570;SDS011;59407;42.682;23.322;2022-08-21T01:11:49;35.28;;;12.35;;
71570;SDS011;59407;42.682;23.322;2022-08-21T01:14:15;35.60;;;12.90;;
71570;SDS011;59407;42.682;23.322;2022-08-21T01:16:41;37.17;;;14.90;;
71570;SDS011;59407;42.682;23.322;2022-08-21T01:19:12;30.73;;;12.07;;
71570;SDS011;59407;42.682;23.322;2022-08-21T01:22:08;27.83;;;11.48;;
71570;SDS011;59407;42.682;23.322;2022-08-21T01:24:33;28.60;;;11.32;;
71570;SDS011;59407;42.682;23.322;2022-08-21T01:26:59;23.10;;;10.30;;
71570;SDS011;59407;42.682;23.322;2022-08-21T01:32:03;23.17;;;10.30;;
71570;SDS011;59407;42.682;23.322;2022-08-21T01:34:32;24.92;;;10.30;;
71570;SDS011;59407;42.682;23.322;2022-08-21T01:36:58;23.23;;;10.32;;
71570;SDS011;59407;42.682;23.322;2022-08-21T01:39:24;25.23;;;9.87;;
71570;SDS011;59407;42.682;23.322;2022-08-21T01:41:49;24.03;;;9.67;;
71570;SDS011;59407;42.682;23.322;2022-08-21T01:44:15;22.50;;;8.97;;
71570;SDS011;59407;42.682;23.322;2022-08-21T01:46:40;21.47;;;9.37;;
71570;SDS011;59407;42.682;23.322;2022-08-21T01:49:06;23.75;;;9.75;;
71570;SDS011;59407;42.682;23.322;2022-08-21T01:51:31;21.23;;;9.57;;
71570;SDS011;59407;42.682;23.322;2022-08-21T01:53:57;22.42;;;10.68;;
71570;SDS011;59407;42.682;23.322;2022-08-21T01:56:47;21.58;;;9.38;;
71570;SDS011;59407;42.682;23.322;2022-08-21T01:59:14;24.47;;;10.23;;
71570;SDS011;59407;42.682;23.322;2022-08-21T02:04:32;21.25;;;9.45;;
71570;SDS011;59407;42.682;23.322;2022-08-21T02:07:08;24.95;;;9.55;;
71570;SDS011;59407;42.682;23.322;2022-08-21T02:12:35;20.90;;;9.37;;
71570;SDS011;59407;42.682;23.322;2022-08-21T02:15:02;23.65;;;10.93;;
71570;SDS011;59407;42.682;23.322;2022-08-21T02:17:36;31.48;;;12.18;;
71570;SDS011;59407;42.682;23.322;2022-08-21T02:20:05;35.40;;;13.40;;
71570;SDS011;59407;42.682;23.322;2022-08-21T02:22:31;42.33;;;14.73;;
71570;SDS011;59407;42.682;23.322;2022-08-21T02:24:56;39.20;;;14.43;;
71570;SDS011;59407;42.682;23.322;2022-08-21T02:27:22;42.33;;;14.63;;
71570;SDS011;59407;42.682;23.322;2022-08-21T02:29:48;37.45;;;15.45;;
71570;SDS011;59407;42.682;23.322;2022-08-21T02:32:16;38.47;;;15.20;;
71570;SDS011;59407;42.682;23.322;2022-08-21T02:34:41;41.23;;;17.10;;
71570;SDS011;59407;42.682;23.322;2022-08-21T02:37:11;42.08;;;16.77;;
71570;SDS011;59407;42.682;23.322;2022-08-21T02:39:38;50.35;;;15.75;;
71570;SDS011;59407;42.682;23.322;2022-08-21T02:42:03;43.50;;;17.33;;
71570;SDS011;59407;42.682;23.322;2022-08-21T02:44:29;44.00;;;16.27;;
71570;SDS011;59407;42.682;23.322;2022-08-21T02:46:54;43.43;;;16.53;;
71570;SDS011;59407;42.682;23.322;2022-08-21T02:49:20;47.37;;;16.87;;
71570;SDS011;59407;42.682;23.322;2022-08-21T02:51:48;46.10;;;16.80;;
71570;SDS011;59407;42.682;23.322;2022-08-21T02:54:13;47.70;;;17.50;;
71570;SDS011;59407;42.682;23.322;2022-08-21T03:00:39;50.58;;;18.27;;
71570;SDS011;59407;42.682;23.322;2022-08-21T03:21:26;42.67;;;16.87;;
71570;SDS011;59407;42.682;23.322;2022-08-21T03:31:26;47.53;;;16.58;;
71570;SDS011;59407;42.682;23.322;2022-08-21T03:33:55;48.10;;;16.70;;
71570;SDS011;59407;42.682;23.322;2022-08-21T03:36:24;50.27;;;16.43;;
71570;SDS011;59407;42.682;23.322;2022-08-21T03:39:03;46.90;;;15.98;;
71570;SDS011;59407;42.682;23.322;2022-08-21T03:41:34;49.22;;;16.80;;
71570;SDS011;59407;42.682;23.322;2022-08-21T03:44:00;49.77;;;18.03;;
71570;SDS011;59407;42.682;23.322;2022-08-21T03:46:25;46.03;;;17.83;;
71570;SDS011;59407;42.682;23.322;2022-08-21T03:48:53;49.53;;;18.63;;
71570;SDS011;59407;42.682;23.322;2022-08-21T03:59:01;43.55;;;16.23;;
71570;SDS011;59407;42.682;23.322;2022-08-21T04:16:26;33.97;;;12.70;;
71570;SDS011;59407;42.682;23.322;2022-08-21T04:29:46;26.77;;;11.97;;
71570;SDS011;59407;42.682;23.322;2022-08-21T04:32:20;28.20;;;11.82;;
71570;SDS011;59407;42.682;23.322;2022-08-21T04:34:48;23.77;;;11.80;;
71570;SDS011;59407;42.682;23.322;2022-08-21T04:37:18;18.73;;;9.57;;
71570;SDS011;59407;42.682;23.322;2022-08-21T04:47:18;14.07;;;7.85;;
71570;SDS011;59407;42.682;23.322;2022-08-21T04:49:51;18.90;;;8.68;;
71570;SDS011;59407;42.682;23.322;2022-08-21T04:52:20;16.50;;;9.20;;
71570;SDS011;59407;42.682;23.322;2022-08-21T04:54:52;17.30;;;9.02;;
71570;SDS011;59407;42.682;23.322;2022-08-21T04:57:20;15.47;;;8.90;;
71570;SDS011;59407;42.682;23.322;2022-08-21T04:59:55;15.65;;;8.63;;
71570;SDS011;59407;42.682;23.322;2022-08-21T05:02:29;20.00;;;8.68;;
71570;SDS011;59407;42.682;23.322;2022-08-21T05:05:00;19.08;;;9.07;;
71570;SDS011;59407;42.682;23.322;2022-08-21T05:07:35;18.15;;;10.00;;
71570;SDS011;59407;42.682;23.322;2022-08-21T05:10:17;19.53;;;9.73;;
71570;SDS011;59407;42.682;23.322;2022-08-21T05:26:59;16.27;;;8.77;;
71570;SDS011;59407;42.682;23.322;2022-08-21T05:29:41;16.63;;;8.50;;
71570;SDS011;59407;42.682;23.322;2022-08-21T05:33:03;15.73;;;7.30;;
71570;SDS011;59407;42.682;23.322;2022-08-21T05:35:30;14.88;;;8.00;;
71570;SDS011;59407;42.682;23.322;2022-08-21T05:37:57;15.23;;;7.32;;
71570;SDS011;59407;42.682;23.322;2022-08-21T05:40:23;13.97;;;7.40;;
71570;SDS011;59407;42.682;23.322;2022-08-21T05:42:50;12.65;;;7.10;;
71570;SDS011;59407;42.682;23.322;2022-08-21T05:45:15;16.02;;;7.47;;
71570;SDS011;59407;42.682;23.322;2022-08-21T05:47:41;11.77;;;6.83;;
71570;SDS011;59407;42.682;23.322;2022-08-21T05:50:07;12.95;;;6.85;;
71570;SDS011;59407;42.682;23.322;2022-08-21T05:52:32;12.70;;;6.77;;
71570;SDS011;59407;42.682;23.322;2022-08-21T05:54:58;10.60;;;6.13;;
71570;SDS011;59407;42.682;23.322;2022-08-21T05:57:23;13.83;;;6.10;;
71570;SDS011;59407;42.682;23.322;2022-08-21T05:59:50;11.13;;;4.95;;
71570;SDS011;59407;42.682;23.322;2022-08-21T06:02:19;11.93;;;6.40;;
71570;SDS011;59407;42.682;23.322;2022-08-21T06:04:45;11.52;;;5.85;;
71570;SDS011;59407;42.682;23.322;2022-08-21T06:07:10;13.67;;;6.00;;
71570;SDS011;59407;42.682;23.322;2022-08-21T06:09:46;13.15;;;5.80;;
71570;SDS011;59407;42.682;23.322;2022-08-21T06:12:21;13.10;;;5.73;;
71570;SDS011;59407;42.682;23.322;2022-08-21T06:14:47;12.43;;;6.07;;
71570;SDS011;59407;42.682;23.322;2022-08-21T06:17:17;13.73;;;6.60;;
71570;SDS011;59407;42.682;23.322;2022-08-21T06:20:06;10.88;;;6.72;;
71570;SDS011;59407;42.682;23.322;2022-08-21T06:22:37;11.52;;;6.13;;
71570;SDS011;59407;42.682;23.322;2022-08-21T06:25:03;10.93;;;5.83;;
71570;SDS011;59407;42.682;23.322;2022-08-21T06:27:29;10.82;;;6.55;;
71570;SDS011;59407;42.682;23.322;2022-08-21T06:29:54;14.77;;;7.60;;
71570;SDS011;59407;42.682;23.322;2022-08-21T06:32:22;13.23;;;6.95;;
71570;SDS011;59407;42.682;23.322;2022-08-21T06:34:51;13.88;;;7.15;;
71570;SDS011;59407;42.682;23.322;2022-08-21T06:37:16;11.63;;;6.43;;
71570;SDS011;59407;42.682;23.322;2022-08-21T06:40:00;14.03;;;7.10;;
71570;SDS011;59407;42.682;23.322;2022-08-21T06:43:06;14.15;;;7.53;;
71570;SDS011;59407;42.682;23.322;2022-08-21T06:45:35;15.68;;;7.82;;
71570;SDS011;59407;42.682;23.322;2022-08-21T06:48:07;14.63;;;7.00;;
71570;SDS011;59407;42.682;23.322;2022-08-21T06:50:35;15.23;;;7.63;;
71570;SDS011;59407;42.682;23.322;2022-08-21T06:53:05;13.48;;;7.75;;
71570;SDS011;59407;42.682;23.322;2022-08-21T06:55:48;16.37;;;7.23;;
71570;SDS011;59407;42.682;23.322;2022-08-21T06:58:14;13.88;;;7.35;;
71570;SDS011;59407;42.682;23.322;2022-08-21T07:00:41;15.18;;;7.32;;
71570;SDS011;59407;42.682;23.322;2022-08-21T07:03:16;15.03;;;7.70;;
71570;SDS011;59407;42.682;23.322;2022-08-21T07:05:44;14.30;;;7.63;;
71570;SDS011;59407;42.682;23.322;2022-08-21T07:08:10;16.93;;;8.00;;
71570;SDS011;59407;42.682;23.322;2022-08-21T07:10:35;14.90;;;6.68;;
71570;SDS011;59407;42.682;23.322;2022-08-21T07:13:00;21.27;;;13.00;;
71570;SDS011;59407;42.682;23.322;2022-08-21T07:40:23;14.65;;;7.60;;
71570;SDS011;59407;42.682;23.322;2022-08-21T07:42:49;16.27;;;7.97;;
71570;SDS011;59407;42.682;23.322;2022-08-21T07:45:17;16.33;;;7.65;;
71570;SDS011;59407;42.682;23.322;2022-08-21T07:47:44;14.30;;;7.15;;
71570;SDS011;59407;42.682;23.322;2022-08-21T07:50:10;12.60;;;7.40;;
71570;SDS011;59407;42.682;23.322;2022-08-21T07:52:36;12.50;;;7.90;;
71570;SDS011;59407;42.682;23.322;2022-08-21T07:55:02;12.20;;;6.53;;
71570;SDS011;59407;42.682;23.322;2022-08-21T07:57:28;14.52;;;7.18;;
71570;SDS011;59407;42.682;23.322;2022-08-21T08:00:01;12.53;;;7.53;;
71570;SDS011;59407;42.682;23.322;2022-08-21T08:02:29;12.77;;;7.32;;
71570;SDS011;59407;42.682;23.322;2022-08-21T08:05:04;14.93;;;7.30;;
71570;SDS011;59407;42.682;23.322;2022-08-21T08:07:32;14.52;;;7.82;;
71570;SDS011;59407;42.682;23.322;2022-08-21T08:09:58;15.53;;;8.03;;
71570;SDS011;59407;42.682;23.322;2022-08-21T08:12:23;14.40;;;8.10;;
71570;SDS011;59407;42.682;23.322;2022-08-21T08:14:54;16.10;;;8.37;;
71570;SDS011;59407;42.682;23.322;2022-08-21T08:17:22;15.38;;;8.93;;
71570;SDS011;59407;42.682;23.322;2022-08-21T08:19:48;16.63;;;8.93;;
71570;SDS011;59407;42.682;23.322;2022-08-21T08:22:25;16.73;;;9.17;;
71570;SDS011;59407;42.682;23.322;2022-08-21T08:24:56;13.88;;;7.80;;
71570;SDS011;59407;42.682;23.322;2022-08-21T08:27:41;16.20;;;8.65;;
71570;SDS011;59407;42.682;23.322;2022-08-21T08:30:24;16.55;;;8.23;;
71570;SDS011;59407;42.682;23.322;2022-08-21T08:32:57;15.65;;;7.82;;
71570;SDS011;59407;42.682;23.322;2022-08-21T08:35:24;13.07;;;8.10;;
71570;SDS011;59407;42.682;23.322;2022-08-21T08:38:07;14.20;;;7.50;;
71570;SDS011;59407;42.682;23.322;2022-08-21T08:41:05;17.02;;;7.57;;
71570;SDS011;59407;42.682;23.322;2022-08-21T08:44:14;12.65;;;7.72;;
71570;SDS011;59407;42.682;23.322;2022-08-21T08:46:46;13.63;;;7.73;;
71570;SDS011;59407;42.682;23.322;2022-08-21T08:55:57;14.45;;;6.82;;
71570;SDS011;59407;42.682;23.322;2022-08-21T08:58:36;12.03;;;6.70;;
71570;SDS011;59407;42.682;23.322;2022-08-21T09:03:54;13.30;;;6.85;;
71570;SDS011;59407;42.682;23.322;2022-08-21T09:06:37;9.95;;;6.30;;
71570;SDS011;59407;42.682;23.322;2022-08-21T09:09:47;35.88;;;23.65;;
71570;SDS011;59407;42.682;23.322;2022-08-21T09:12:09;13.40;;;7.43;;
71570;SDS011;59407;42.682;23.322;2022-08-21T09:22:57;9.70;;;5.40;;
71570;SDS011;59407;42.682;23.322;2022-08-21T09:25:49;13.77;;;5.30;;
71570;SDS011;59407;42.682;23.322;2022-08-21T09:35:23;12.85;;;6.20;;
71570;SDS011;59407;42.682;23.322;2022-08-21T09:37:59;14.80;;;6.00;;
71570;SDS011;59407;42.682;23.322;2022-08-21T09:40:42;10.80;;;5.60;;
71570;SDS011;59407;42.682;23.322;2022-08-21T09:43:20;9.95;;;5.25;;
71570;SDS011;59407;42.682;23.322;2022-08-21T09:46:23;9.20;;;4.75;;
71570;SDS011;59407;42.682;23.322;2022-08-21T09:49:26;9.98;;;5.32;;
71570;SDS011;59407;42.682;23.322;2022-08-21T09:51:55;10.35;;;4.60;;
71570;SDS011;59407;42.682;23.322;2022-08-21T09:54:24;8.23;;;4.77;;
71570;SDS011;59407;42.682;23.322;2022-08-21T09:57:35;8.40;;;4.78;;
71570;SDS011;59407;42.682;23.322;2022-08-21T10:03:17;12.48;;;5.20;;
71570;SDS011;59407;42.682;23.322;2022-08-21T10:12:49;8.90;;;4.55;;
71570;SDS011;59407;42.682;23.322;2022-08-21T10:41:06;10.67;;;5.17;;
71570;SDS011;59407;42.682;23.322;2022-08-21T10:43:39;9.52;;;4.97;;
71570;SDS011;59407;42.682;23.322;2022-08-21T11:03:35;9.18;;;4.65;;
71570;SDS011;59407;42.682;23.322;2022-08-21T11:06:21;9.35;;;4.97;;
71570;SDS011;59407;42.682;23.322;2022-08-21T11:08:53;11.57;;;5.30;;
71570;SDS011;59407;42.682;23.322;2022-08-21T11:12:25;10.77;;;4.83;;
71570;SDS011;59407;42.682;23.322;2022-08-21T11:15:31;11.10;;;5.15;;
71570;SDS011;59407;42.682;23.322;2022-08-21T11:23:38;10.57;;;4.68;;
71570;SDS011;59407;42.682;23.322;2022-08-21T11:26:11;10.13;;;4.67;;
71570;SDS011;59407;42.682;23.322;2022-08-21T11:28:43;8.00;;;4.13;;
71570;SDS011;59407;42.682;23.322;2022-08-21T11:34:07;9.60;;;4.20;;
71570;SDS011;59407;42.682;23.322;2022-08-21T11:50:48;8.18;;;4.57;;
71570;SDS011;59407;42.682;23.322;2022-08-21T11:56:02;10.40;;;4.75;;
71570;SDS011;59407;42.682;23.322;2022-08-21T11:58:39;9.05;;;4.32;;
71570;SDS011;59407;42.682;23.322;2022-08-21T12:01:11;8.60;;;4.50;;
71570;SDS011;59407;42.682;23.322;2022-08-21T12:03:41;7.90;;;3.65;;
71570;SDS011;59407;42.682;23.322;2022-08-21T12:06:13;10.00;;;4.10;;
71570;SDS011;59407;42.682;23.322;2022-08-21T12:08:43;9.57;;;4.30;;
71570;SDS011;59407;42.682;23.322;2022-08-21T12:14:12;10.98;;;4.50;;
71570;SDS011;59407;42.682;23.322;2022-08-21T12:16:40;8.43;;;4.45;;
71570;SDS011;59407;42.682;23.322;2022-08-21T12:21:53;10.52;;;4.65;;
71570;SDS011;59407;42.682;23.322;2022-08-21T12:24:29;10.10;;;5.47;;
71570;SDS011;59407;42.682;23.322;2022-08-21T12:29:50;8.18;;;4.30;;
71570;SDS011;59407;42.682;23.322;2022-08-21T12:32:27;9.40;;;5.40;;
71570;SDS011;59407;42.682;23.322;2022-08-21T12:37:40;10.03;;;4.60;;
71570;SDS011;59407;42.682;23.322;2022-08-21T12:42:56;7.82;;;4.45;;
71570;SDS011;59407;42.682;23.322;2022-08-21T12:45:34;8.75;;;5.10;;
71570;SDS011;59407;42.682;23.322;2022-08-21T12:48:14;9.23;;;4.70;;
71570;SDS011;59407;42.682;23.322;2022-08-21T12:50:54;7.70;;;4.40;;
71570;SDS011;59407;42.682;23.322;2022-08-21T12:53:42;10.48;;;5.15;;
71570;SDS011;59407;42.682;23.322;2022-08-21T12:56:12;10.20;;;4.70;;
71570;SDS011;59407;42.682;23.322;2022-08-21T12:58:40;7.30;;;4.20;;
71570;SDS011;59407;42.682;23.322;2022-08-21T13:01:43;7.88;;;4.30;;
71570;SDS011;59407;42.682;23.322;2022-08-21T13:04:06;8.23;;;4.10;;
71570;SDS011;59407;42.682;23.322;2022-08-21T13:06:39;9.43;;;6.60;;
71570;SDS011;59407;42.682;23.322;2022-08-21T13:09:08;9.00;;;4.78;;
71570;SDS011;59407;42.682;23.322;2022-08-21T13:11:39;9.15;;;4.95;;
71570;SDS011;59407;42.682;23.322;2022-08-21T13:14:17;11.68;;;4.55;;
71570;SDS011;59407;42.682;23.322;2022-08-21T13:16:52;6.80;;;4.40;;
71570;SDS011;59407;42.682;23.322;2022-08-21T13:19:22;10.05;;;4.72;;
71570;SDS011;59407;42.682;23.322;2022-08-21T13:21:48;9.05;;;5.00;;
71570;SDS011;59407;42.682;23.322;2022-08-21T13:26:45;9.98;;;4.53;;
71570;SDS011;59407;42.682;23.322;2022-08-21T13:29:13;8.80;;;4.47;;
71570;SDS011;59407;42.682;23.322;2022-08-21T13:31:42;6.55;;;3.88;;
71570;SDS011;59407;42.682;23.322;2022-08-21T13:34:12;9.95;;;4.70;;
71570;SDS011;59407;42.682;23.322;2022-08-21T13:36:39;8.73;;;3.77;;
71570;SDS011;59407;42.682;23.322;2022-08-21T13:39:11;6.70;;;3.58;;
71570;SDS011;59407;42.682;23.322;2022-08-21T13:41:40;6.57;;;3.90;;
71570;SDS011;59407;42.682;23.322;2022-08-21T13:44:18;7.27;;;3.87;;
71570;SDS011;59407;42.682;23.322;2022-08-21T13:46:46;12.18;;;5.38;;
71570;SDS011;59407;42.682;23.322;2022-08-21T13:49:14;9.38;;;4.00;;
71570;SDS011;59407;42.682;23.322;2022-08-21T13:51:41;7.40;;;4.20;;
71570;SDS011;59407;42.682;23.322;2022-08-21T13:54:22;8.67;;;4.50;;
71570;SDS011;59407;42.682;23.322;2022-08-21T14:03:41;10.02;;;4.38;;
71570;SDS011;59407;42.682;23.322;2022-08-21T14:06:18;7.70;;;4.20;;
71570;SDS011;59407;42.682;23.322;2022-08-21T14:09:29;7.80;;;4.10;;
71570;SDS011;59407;42.682;23.322;2022-08-21T14:11:36;7.10;;;4.27;;
71570;SDS011;59407;42.682;23.322;2022-08-21T14:14:18;6.97;;;4.20;;
71570;SDS011;59407;42.682;23.322;2022-08-21T14:16:52;7.83;;;4.00;;
71570;SDS011;59407;42.682;23.322;2022-08-21T14:19:22;7.75;;;4.13;;
71570;SDS011;59407;42.682;23.322;2022-08-21T14:21:51;10.70;;;4.15;;
71570;SDS011;59407;42.682;23.322;2022-08-21T14:26:55;8.13;;;4.35;;
71570;SDS011;59407;42.682;23.322;2022-08-21T14:33:18;8.13;;;4.95;;
71570;SDS011;59407;42.682;23.322;2022-08-21T14:36:49;7.47;;;4.10;;
71570;SDS011;59407;42.682;23.322;2022-08-21T14:39:22;7.95;;;4.57;;
71570;SDS011;59407;42.682;23.322;2022-08-21T14:44:33;6.33;;;4.10;;
71570;SDS011;59407;42.682;23.322;2022-08-21T14:47:02;9.65;;;4.32;;
71570;SDS011;59407;42.682;23.322;2022-08-21T14:49:30;9.50;;;4.47;;
71570;SDS011;59407;42.682;23.322;2022-08-21T14:52:07;11.83;;;4.60;;
71570;SDS011;59407;42.682;23.322;2022-08-21T14:55:21;7.85;;;4.18;;
71570;SDS011;59407;42.682;23.322;2022-08-21T14:57:47;9.20;;;4.17;;
71570;SDS011;59407;42.682;23.322;2022-08-21T15:00:14;18.08;;;11.05;;
71570;SDS011;59407;42.682;23.322;2022-08-21T15:02:42;12.90;;;6.72;;
71570;SDS011;59407;42.682;23.322;2022-08-21T15:05:09;8.88;;;5.35;;
71570;SDS011;59407;42.682;23.322;2022-08-21T15:07:34;9.65;;;4.63;;
71570;SDS011;59407;42.682;23.322;2022-08-21T15:10:00;8.23;;;4.43;;
71570;SDS011;59407;42.682;23.322;2022-08-21T15:12:26;7.33;;;4.80;;
71570;SDS011;59407;42.682;23.322;2022-08-21T15:14:52;7.90;;;4.60;;
71570;SDS011;59407;42.682;23.322;2022-08-21T15:17:17;10.93;;;4.30;;
71570;SDS011;59407;42.682;23.322;2022-08-21T15:19:43;9.27;;;4.70;;
71570;SDS011;59407;42.682;23.322;2022-08-21T15:22:09;7.65;;;4.95;;
71570;SDS011;59407;42.682;23.322;2022-08-21T15:24:35;9.93;;;5.03;;
71570;SDS011;59407;42.682;23.322;2022-08-21T15:27:01;10.13;;;4.87;;
71570;SDS011;59407;42.682;23.322;2022-08-21T15:29:28;11.43;;;5.50;;
71570;SDS011;59407;42.682;23.322;2022-08-21T15:31:55;7.97;;;5.10;;
71570;SDS011;59407;42.682;23.322;2022-08-21T15:34:47;10.45;;;4.63;;
71570;SDS011;59407;42.682;23.322;2022-08-21T15:37:20;10.75;;;5.20;;
71570;SDS011;59407;42.682;23.322;2022-08-21T15:39:50;8.20;;;4.47;;
71570;SDS011;59407;42.682;23.322;2022-08-21T15:52:16;10.02;;;5.53;;
71570;SDS011;59407;42.682;23.322;2022-08-21T15:54:43;9.80;;;5.23;;
71570;SDS011;59407;42.682;23.322;2022-08-21T15:57:11;10.25;;;5.32;;
71570;SDS011;59407;42.682;23.322;2022-08-21T15:59:42;9.85;;;5.32;;
71570;SDS011;59407;42.682;23.322;2022-08-21T16:02:14;11.10;;;4.60;;
71570;SDS011;59407;42.682;23.322;2022-08-21T16:04:41;9.27;;;4.60;;
71570;SDS011;59407;42.682;23.322;2022-08-21T16:07:06;10.60;;;5.28;;
71570;SDS011;59407;42.682;23.322;2022-08-21T16:09:32;10.10;;;5.40;;
71570;SDS011;59407;42.682;23.322;2022-08-21T16:11:58;10.27;;;5.30;;
71570;SDS011;59407;42.682;23.322;2022-08-21T16:14:24;11.57;;;5.43;;
71570;SDS011;59407;42.682;23.322;2022-08-21T16:17:00;9.93;;;5.65;;
71570;SDS011;59407;42.682;23.322;2022-08-21T16:19:26;15.87;;;8.80;;
71570;SDS011;59407;42.682;23.322;2022-08-21T16:21:53;11.27;;;6.22;;
71570;SDS011;59407;42.682;23.322;2022-08-21T16:24:18;11.13;;;6.00;;
71570;SDS011;59407;42.682;23.322;2022-08-21T16:26:43;10.27;;;6.25;;
71570;SDS011;59407;42.682;23.322;2022-08-21T16:29:09;10.50;;;5.60;;
71570;SDS011;59407;42.682;23.322;2022-08-21T16:31:34;10.40;;;5.37;;
71570;SDS011;59407;42.682;23.322;2022-08-21T16:34:00;9.73;;;5.38;;
71570;SDS011;59407;42.682;23.322;2022-08-21T16:36:26;8.65;;;5.45;;
71570;SDS011;59407;42.682;23.322;2022-08-21T16:38:52;13.60;;;5.70;;
71570;SDS011;59407;42.682;23.322;2022-08-21T16:41:19;8.43;;;5.20;;
71570;SDS011;59407;42.682;23.322;2022-08-21T16:43:45;12.40;;;6.63;;
71570;SDS011;59407;42.682;23.322;2022-08-21T16:46:11;11.02;;;5.35;;
71570;SDS011;59407;42.682;23.322;2022-08-21T16:48:38;9.43;;;5.55;;
71570;SDS011;59407;42.682;23.322;2022-08-21T16:51:04;11.53;;;5.47;;
71570;SDS011;59407;42.682;23.322;2022-08-21T16:53:30;11.68;;;6.00;;
71570;SDS011;59407;42.682;23.322;2022-08-21T16:55:56;13.57;;;5.80;;
71570;SDS011;59407;42.682;23.322;2022-08-21T16:58:26;13.80;;;7.87;;
71570;SDS011;59407;42.682;23.322;2022-08-21T17:00:53;16.67;;;8.50;;
71570;SDS011;59407;42.682;23.322;2022-08-21T17:03:19;12.17;;;6.47;;
71570;SDS011;59407;42.682;23.322;2022-08-21T17:05:46;13.07;;;7.45;;
71570;SDS011;59407;42.682;23.322;2022-08-21T17:08:12;10.00;;;6.45;;
71570;SDS011;59407;42.682;23.322;2022-08-21T17:10:37;12.17;;;6.07;;
71570;SDS011;59407;42.682;23.322;2022-08-21T17:13:04;11.20;;;6.45;;
71570;SDS011;59407;42.682;23.322;2022-08-21T17:15:34;9.63;;;5.97;;
71570;SDS011;59407;42.682;23.322;2022-08-21T17:18:03;10.20;;;4.70;;
71570;SDS011;59407;42.682;23.322;2022-08-21T17:20:31;11.27;;;5.90;;
71570;SDS011;59407;42.682;23.322;2022-08-21T17:23:01;10.60;;;6.13;;
71570;SDS011;59407;42.682;23.322;2022-08-21T17:25:26;14.17;;;7.00;;
71570;SDS011;59407;42.682;23.322;2022-08-21T17:27:55;10.85;;;5.75;;
71570;SDS011;59407;42.682;23.322;2022-08-21T17:30:21;12.65;;;5.82;;
71570;SDS011;59407;42.682;23.322;2022-08-21T17:32:47;14.50;;;6.60;;
71570;SDS011;59407;42.682;23.322;2022-08-21T17:35:14;9.18;;;5.95;;
71570;SDS011;59407;42.682;23.322;2022-08-21T17:37:40;11.00;;;6.30;;
71570;SDS011;59407;42.682;23.322;2022-08-21T17:40:08;16.25;;;7.72;;
71570;SDS011;59407;42.682;23.322;2022-08-21T17:42:38;13.65;;;9.10;;
71570;SDS011;59407;42.682;23.322;2022-08-21T17:45:08;16.67;;;8.65;;
71570;SDS011;59407;42.682;23.322;2022-08-21T17:47:35;11.80;;;7.13;;
71570;SDS011;59407;42.682;23.322;2022-08-21T17:50:02;10.70;;;5.95;;
71570;SDS011;59407;42.682;23.322;2022-08-21T17:52:29;12.35;;;6.82;;
71570;SDS011;59407;42.682;23.322;2022-08-21T17:54:58;12.27;;;6.67;;
71570;SDS011;59407;42.682;23.322;2022-08-21T17:57:23;14.70;;;7.22;;
71570;SDS011;59407;42.682;23.322;2022-08-21T17:59:52;13.07;;;6.80;;
71570;SDS011;59407;42.682;23.322;2022-08-21T18:02:18;10.43;;;5.68;;
71570;SDS011;59407;42.682;23.322;2022-08-21T18:04:43;11.20;;;6.63;;
71570;SDS011;59407;42.682;23.322;2022-08-21T18:07:09;12.77;;;6.70;;
71570;SDS011;59407;42.682;23.322;2022-08-21T18:09:34;11.47;;;7.60;;
71570;SDS011;59407;42.682;23.322;2022-08-21T18:12:00;13.27;;;7.37;;
71570;SDS011;59407;42.682;23.322;2022-08-21T18:14:29;18.63;;;8.23;;
71570;SDS011;59407;42.682;23.322;2022-08-21T18:16:58;16.08;;;8.15;;
71570;SDS011;59407;42.682;23.322;2022-08-21T18:19:24;14.35;;;7.85;;
71570;SDS011;59407;42.682;23.322;2022-08-21T18:21:52;16.23;;;8.23;;
71570;SDS011;59407;42.682;23.322;2022-08-21T18:24:18;18.42;;;8.52;;
71570;SDS011;59407;42.682;23.322;2022-08-21T18:26:44;15.82;;;8.27;;
71570;SDS011;59407;42.682;23.322;2022-08-21T18:29:10;15.50;;;9.10;;
71570;SDS011;59407;42.682;23.322;2022-08-21T18:31:38;15.93;;;8.35;;
71570;SDS011;59407;42.682;23.322;2022-08-21T18:34:06;15.32;;;8.80;;
71570;SDS011;59407;42.682;23.322;2022-08-21T18:36:35;14.33;;;8.73;;
71570;SDS011;59407;42.682;23.322;2022-08-21T18:45:00;16.52;;;8.45;;
71570;SDS011;59407;42.682;23.322;2022-08-21T18:47:33;13.70;;;7.25;;
71570;SDS011;59407;42.682;23.322;2022-08-21T18:50:26;15.13;;;8.93;;
71570;SDS011;59407;42.682;23.322;2022-08-21T18:52:53;12.77;;;7.88;;
71570;SDS011;59407;42.682;23.322;2022-08-21T18:55:19;12.67;;;7.53;;
71570;SDS011;59407;42.682;23.322;2022-08-21T18:57:45;14.18;;;8.43;;
71570;SDS011;59407;42.682;23.322;2022-08-21T19:00:12;14.07;;;7.83;;
71570;SDS011;59407;42.682;23.322;2022-08-21T19:02:40;20.25;;;14.27;;
71570;SDS011;59407;42.682;23.322;2022-08-21T19:05:06;29.05;;;21.45;;
71570;SDS011;59407;42.682;23.322;2022-08-21T19:07:33;11.93;;;7.03;;
71570;SDS011;59407;42.682;23.322;2022-08-21T19:09:59;11.40;;;6.78;;
71570;SDS011;59407;42.682;23.322;2022-08-21T19:12:25;9.53;;;5.63;;